sensor_id;sensor_type;location;lat;lon;timestamp;pressure;altitude;pressure_sealevel;temperature;humidity
47753;BME280;2038;51.728;6.674;2023-11-21T00:02:10;76476.63;;;-141.64;93.26
47753;BME280;2038;51.728;6.674;2023-11-21T00:04:36;76488.34;;;-141.64;93.45
47753;BME280;2038;51.728;6.674;2023-11-21T00:07:03;76503.97;;;-141.64;92.92
47753;BME280;2038;51.728;6.674;2023-11-21T00:09:29;76509.81;;;-141.64;93.01
47753;BME280;2038;51.728;6.674;2023-11-21T00:11:56;76511.75;;;-141.64;93.34
47753;BME280;2038;51.728;6.674;2023-11-21T00:14:22;76505.91;;;-141.64;93.36
47753;BME280;2038;51.728;6.674;2023-11-21T00:16:48;76515.66;;;-141.64;93.15
47753;BME280;2038;51.728;6.674;2023-11-21T00:19:14;76513.72;;;-141.64;93.64
47753;BME280;2038;51.728;6.674;2023-11-21T00:21:40;76519.56;;;-141.64;93.99
47753;BME280;2038;51.728;6.674;2023-11-21T00:24:10;76533.25;;;-141.64;93.82
47753;BME280;2038;51.728;6.674;2023-11-21T00:26:39;76539.09;;;-141.64;93.68
47753;BME280;2038;51.728;6.674;2023-11-21T00:29:06;76543.00;;;-141.64;94.02
47753;BME280;2038;51.728;6.674;2023-11-21T00:31:36;76539.09;;;-141.64;93.81
47753;BME280;2038;51.728;6.674;2023-11-21T00:34:05;76533.25;;;-141.64;94.25
47753;BME280;2038;51.728;6.674;2023-11-21T00:36:32;76529.34;;;-141.64;94.40
47753;BME280;2038;51.728;6.674;2023-11-21T00:38:58;76533.25;;;-141.64;94.10
47753;BME280;2038;51.728;6.674;2023-11-21T00:41:25;76527.38;;;-141.64;93.86
47753;BME280;2038;51.728;6.674;2023-11-21T00:43:54;76527.38;;;-141.64;94.10
47753;BME280;2038;51.728;6.674;2023-11-21T00:46:21;76539.09;;;-141.64;94.12
47753;BME280;2038;51.728;6.674;2023-11-21T00:48:47;76546.91;;;-141.64;94.26
47753;BME280;2038;51.728;6.674;2023-11-21T00:51:13;76531.28;;;-141.64;94.16
47753;BME280;2038;51.728;6.674;2023-11-21T00:53:39;76535.19;;;-141.64;93.97
47753;BME280;2038;51.728;6.674;2023-11-21T00:56:06;76537.16;;;-141.64;93.86
47753;BME280;2038;51.728;6.674;2023-11-21T00:58:34;76541.06;;;-141.64;93.82
47753;BME280;2038;51.728;6.674;2023-11-21T01:01:01;76544.97;;;-141.64;94.28
47753;BME280;2038;51.728;6.674;2023-11-21T01:03:28;76544.97;;;-141.64;94.00
47753;BME280;2038;51.728;6.674;2023-11-21T01:05:54;76527.38;;;-141.64;93.56
47753;BME280;2038;51.728;6.674;2023-11-21T01:08:20;76521.53;;;-141.64;93.72
47753;BME280;2038;51.728;6.674;2023-11-21T01:10:47;76523.47;;;-141.64;93.62
47753;BME280;2038;51.728;6.674;2023-11-21T01:13:14;76513.72;;;-141.64;93.75
47753;BME280;2038;51.728;6.674;2023-11-21T01:15:41;76511.75;;;-141.64;93.82
47753;BME280;2038;51.728;6.674;2023-11-21T01:18:08;76509.81;;;-141.64;93.90
47753;BME280;2038;51.728;6.674;2023-11-21T01:20:35;76509.81;;;-141.64;93.26
47753;BME280;2038;51.728;6.674;2023-11-21T01:23:01;76521.53;;;-141.64;93.91
47753;BME280;2038;51.728;6.674;2023-11-21T01:25:27;76539.09;;;-141.64;94.05
47753;BME280;2038;51.728;6.674;2023-11-21T01:27:53;76541.06;;;-141.64;94.40
47753;BME280;2038;51.728;6.674;2023-11-21T01:30:19;76539.09;;;-141.64;94.50
47753;BME280;2038;51.728;6.674;2023-11-21T01:32:46;76543.00;;;-141.64;94.75
47753;BME280;2038;51.728;6.674;2023-11-21T01:35:12;76541.06;;;-141.64;94.63
47753;BME280;2038;51.728;6.674;2023-11-21T01:37:38;76539.09;;;-141.64;94.51
47753;BME280;2038;51.728;6.674;2023-11-21T01:40:05;76541.06;;;-141.64;94.20
47753;BME280;2038;51.728;6.674;2023-11-21T01:42:40;76539.09;;;-141.64;94.28
47753;BME280;2038;51.728;6.674;2023-11-21T01:45:07;76539.09;;;-141.64;94.66
47753;BME280;2038;51.728;6.674;2023-11-21T01:47:35;76535.19;;;-141.64;94.34
47753;BME280;2038;51.728;6.674;2023-11-21T01:50:03;76546.91;;;-141.64;94.39
47753;BME280;2038;51.728;6.674;2023-11-21T01:52:32;76544.97;;;-141.64;94.08
47753;BME280;2038;51.728;6.674;2023-11-21T01:55:03;76541.06;;;-141.64;94.37
47753;BME280;2038;51.728;6.674;2023-11-21T01:57:31;76546.91;;;-141.64;94.49
47753;BME280;2038;51.728;6.674;2023-11-21T01:59:59;76546.91;;;-141.64;94.05
47753;BME280;2038;51.728;6.674;2023-11-21T02:02:36;76544.97;;;-141.64;94.43
47753;BME280;2038;51.728;6.674;2023-11-21T02:05:03;76550.81;;;-141.64;94.52
47753;BME280;2038;51.728;6.674;2023-11-21T02:07:29;76556.66;;;-141.64;94.46
47753;BME280;2038;51.728;6.674;2023-11-21T02:09:56;76556.66;;;-141.64;94.53
47753;BME280;2038;51.728;6.674;2023-11-21T02:12:22;76556.66;;;-141.64;94.23
47753;BME280;2038;51.728;6.674;2023-11-21T02:14:48;76566.44;;;-141.64;94.40
47753;BME280;2038;51.728;6.674;2023-11-21T02:17:14;76558.63;;;-141.64;94.44
47753;BME280;2038;51.728;6.674;2023-11-21T02:19:40;76568.38;;;-141.64;94.31
47753;BME280;2038;51.728;6.674;2023-11-21T02:22:07;76570.34;;;-141.64;94.56
47753;BME280;2038;51.728;6.674;2023-11-21T02:24:33;76570.34;;;-141.64;94.63
47753;BME280;2038;51.728;6.674;2023-11-21T02:26:59;76574.25;;;-141.64;94.52
47753;BME280;2038;51.728;6.674;2023-11-21T02:29:26;76580.09;;;-141.64;95.07
47753;BME280;2038;51.728;6.674;2023-11-21T02:31:54;76576.19;;;-141.64;94.78
47753;BME280;2038;51.728;6.674;2023-11-21T02:34:22;76574.25;;;-141.64;94.53
47753;BME280;2038;51.728;6.674;2023-11-21T02:36:49;76572.28;;;-141.64;94.62
47753;BME280;2038;51.728;6.674;2023-11-21T02:39:15;76576.19;;;-141.64;94.75
47753;BME280;2038;51.728;6.674;2023-11-21T02:41:48;76570.34;;;-141.64;95.03
47753;BME280;2038;51.728;6.674;2023-11-21T02:44:14;76568.38;;;-141.64;94.97
47753;BME280;2038;51.728;6.674;2023-11-21T02:46:40;76568.38;;;-141.64;94.60
47753;BME280;2038;51.728;6.674;2023-11-21T02:49:07;76576.19;;;-141.64;95.31
47753;BME280;2038;51.728;6.674;2023-11-21T02:51:36;76578.16;;;-141.64;94.91
47753;BME280;2038;51.728;6.674;2023-11-21T02:54:05;76568.38;;;-141.64;94.63
47753;BME280;2038;51.728;6.674;2023-11-21T02:56:34;76570.34;;;-141.64;94.41
47753;BME280;2038;51.728;6.674;2023-11-21T02:59:00;76580.09;;;-141.64;94.90
47753;BME280;2038;51.728;6.674;2023-11-21T03:01:27;76576.19;;;-141.64;95.00
47753;BME280;2038;51.728;6.674;2023-11-21T03:03:54;76584.00;;;-141.64;95.49
47753;BME280;2038;51.728;6.674;2023-11-21T03:06:22;76587.91;;;-141.64;95.00
47753;BME280;2038;51.728;6.674;2023-11-21T03:08:48;76593.78;;;-141.64;95.31
47753;BME280;2038;51.728;6.674;2023-11-21T03:11:14;76603.53;;;-141.64;95.27
47753;BME280;2038;51.728;6.674;2023-11-21T03:13:41;76597.69;;;-141.64;95.16
47753;BME280;2038;51.728;6.674;2023-11-21T03:16:11;76599.63;;;-141.64;94.64
47753;BME280;2038;51.728;6.674;2023-11-21T03:18:39;76609.38;;;-141.64;94.66
47753;BME280;2038;51.728;6.674;2023-11-21T03:21:06;76609.38;;;-141.64;95.14
47753;BME280;2038;51.728;6.674;2023-11-21T03:23:35;76613.28;;;-141.64;94.96
47753;BME280;2038;51.728;6.674;2023-11-21T03:26:02;76619.16;;;-141.64;95.09
47753;BME280;2038;51.728;6.674;2023-11-21T03:28:29;76619.16;;;-141.64;94.81
47753;BME280;2038;51.728;6.674;2023-11-21T03:30:58;76625.00;;;-141.64;94.89
47753;BME280;2038;51.728;6.674;2023-11-21T03:33:25;76630.88;;;-141.64;94.54
47753;BME280;2038;51.728;6.674;2023-11-21T03:35:51;76630.88;;;-141.64;94.42
47753;BME280;2038;51.728;6.674;2023-11-21T03:38:18;76644.53;;;-141.64;94.69
47753;BME280;2038;51.728;6.674;2023-11-21T03:40:45;76642.59;;;-141.64;95.73
47753;BME280;2038;51.728;6.674;2023-11-21T03:43:11;76642.59;;;-141.64;95.78
47753;BME280;2038;51.728;6.674;2023-11-21T03:45:38;76638.69;;;-141.64;95.65
47753;BME280;2038;51.728;6.674;2023-11-21T03:48:06;76644.53;;;-141.64;96.04
47753;BME280;2038;51.728;6.674;2023-11-21T03:50:33;76646.47;;;-141.64;95.92
47753;BME280;2038;51.728;6.674;2023-11-21T03:52:59;76650.41;;;-141.64;95.20
47753;BME280;2038;51.728;6.674;2023-11-21T03:55:25;76648.44;;;-141.64;95.33
47753;BME280;2038;51.728;6.674;2023-11-21T03:57:52;76650.41;;;-141.64;95.55
47753;BME280;2038;51.728;6.674;2023-11-21T04:00:18;76650.41;;;-141.64;95.94
47753;BME280;2038;51.728;6.674;2023-11-21T04:02:48;76646.47;;;-141.64;95.95
47753;BME280;2038;51.728;6.674;2023-11-21T04:05:14;76654.28;;;-141.64;96.05
47753;BME280;2038;51.728;6.674;2023-11-21T04:07:40;76646.47;;;-141.64;95.63
47753;BME280;2038;51.728;6.674;2023-11-21T04:10:08;76648.44;;;-141.64;95.16
47753;BME280;2038;51.728;6.674;2023-11-21T04:12:35;76646.47;;;-141.64;95.01
47753;BME280;2038;51.728;6.674;2023-11-21T04:15:02;76644.53;;;-141.64;94.77
47753;BME280;2038;51.728;6.674;2023-11-21T04:17:29;76658.19;;;-141.64;95.12
47753;BME280;2038;51.728;6.674;2023-11-21T04:19:55;76654.28;;;-141.64;94.86
47753;BME280;2038;51.728;6.674;2023-11-21T04:22:21;76662.09;;;-141.64;94.84
47753;BME280;2038;51.728;6.674;2023-11-21T04:24:47;76658.19;;;-141.64;95.21
47753;BME280;2038;51.728;6.674;2023-11-21T04:27:15;76673.81;;;-141.64;95.33
47753;BME280;2038;51.728;6.674;2023-11-21T04:29:44;76671.88;;;-141.64;95.48
47753;BME280;2038;51.728;6.674;2023-11-21T04:32:10;76664.06;;;-141.64;95.58
47753;BME280;2038;51.728;6.674;2023-11-21T04:34:36;76679.69;;;-141.64;95.29
47753;BME280;2038;51.728;6.674;2023-11-21T04:37:03;76687.50;;;-141.64;95.14
47753;BME280;2038;51.728;6.674;2023-11-21T04:39:32;76701.16;;;-141.64;95.38
47753;BME280;2038;51.728;6.674;2023-11-21T04:41:58;76712.88;;;-141.64;95.58
47753;BME280;2038;51.728;6.674;2023-11-21T04:44:24;76710.91;;;-141.64;95.30
47753;BME280;2038;51.728;6.674;2023-11-21T04:46:50;76716.78;;;-141.64;95.44
47753;BME280;2038;51.728;6.674;2023-11-21T04:49:17;76714.81;;;-141.64;95.35
47753;BME280;2038;51.728;6.674;2023-11-21T04:51:43;76707.00;;;-141.64;95.61
47753;BME280;2038;51.728;6.674;2023-11-21T04:54:09;76714.81;;;-141.64;95.93
47753;BME280;2038;51.728;6.674;2023-11-21T04:56:36;76708.97;;;-141.64;95.81
47753;BME280;2038;51.728;6.674;2023-11-21T04:59:02;76707.00;;;-141.64;95.49
47753;BME280;2038;51.728;6.674;2023-11-21T05:01:28;76707.00;;;-141.64;95.85
47753;BME280;2038;51.728;6.674;2023-11-21T05:03:55;76710.91;;;-141.64;95.67
47753;BME280;2038;51.728;6.674;2023-11-21T05:06:22;76705.06;;;-141.64;95.60
47753;BME280;2038;51.728;6.674;2023-11-21T05:08:49;76707.00;;;-141.64;95.65
47753;BME280;2038;51.728;6.674;2023-11-21T05:11:26;76703.13;;;-141.64;95.30
47753;BME280;2038;51.728;6.674;2023-11-21T05:13:53;76699.19;;;-141.64;95.43
47753;BME280;2038;51.728;6.674;2023-11-21T05:16:21;76695.31;;;-141.64;95.87
47753;BME280;2038;51.728;6.674;2023-11-21T05:18:48;76705.06;;;-141.64;95.71
47753;BME280;2038;51.728;6.674;2023-11-21T05:21:16;76707.00;;;-141.64;95.41
47753;BME280;2038;51.728;6.674;2023-11-21T05:23:42;76710.91;;;-141.64;95.09
47753;BME280;2038;51.728;6.674;2023-11-21T05:26:08;76705.06;;;-141.64;94.83
47753;BME280;2038;51.728;6.674;2023-11-21T05:28:35;76718.72;;;-141.64;95.28
47753;BME280;2038;51.728;6.674;2023-11-21T05:31:01;76724.59;;;-141.64;95.81
47753;BME280;2038;51.728;6.674;2023-11-21T05:33:27;76730.44;;;-141.64;95.58
47753;BME280;2038;51.728;6.674;2023-11-21T05:35:53;76732.41;;;-141.64;95.83
47753;BME280;2038;51.728;6.674;2023-11-21T05:38:20;76730.44;;;-141.64;95.72
47753;BME280;2038;51.728;6.674;2023-11-21T05:40:47;76736.31;;;-141.64;95.49
47753;BME280;2038;51.728;6.674;2023-11-21T05:43:13;76744.13;;;-141.64;95.92
47753;BME280;2038;51.728;6.674;2023-11-21T05:45:41;76740.22;;;-141.64;95.93
47753;BME280;2038;51.728;6.674;2023-11-21T05:48:07;76751.94;;;-141.64;95.99
47753;BME280;2038;51.728;6.674;2023-11-21T05:50:33;76744.13;;;-141.64;96.31
47753;BME280;2038;51.728;6.674;2023-11-21T05:52:59;76748.03;;;-141.64;96.05
47753;BME280;2038;51.728;6.674;2023-11-21T05:55:26;76746.06;;;-141.64;96.07
47753;BME280;2038;51.728;6.674;2023-11-21T05:57:52;76757.78;;;-141.64;96.11
47753;BME280;2038;51.728;6.674;2023-11-21T06:00:19;76771.44;;;-141.64;96.73
47753;BME280;2038;51.728;6.674;2023-11-21T06:02:49;76771.44;;;-141.64;96.29
47753;BME280;2038;51.728;6.674;2023-11-21T06:05:17;76773.41;;;-141.64;96.61
47753;BME280;2038;51.728;6.674;2023-11-21T06:07:45;76777.31;;;-141.64;96.61
47753;BME280;2038;51.728;6.674;2023-11-21T06:10:12;76777.31;;;-141.64;96.63
47753;BME280;2038;51.728;6.674;2023-11-21T06:12:40;76775.34;;;-141.64;96.58
47753;BME280;2038;51.728;6.674;2023-11-21T06:15:09;76777.31;;;-141.64;96.21
47753;BME280;2038;51.728;6.674;2023-11-21T06:17:40;76781.22;;;-141.64;96.61
47753;BME280;2038;51.728;6.674;2023-11-21T06:20:09;76785.13;;;-141.64;96.79
47753;BME280;2038;51.728;6.674;2023-11-21T06:22:41;76787.06;;;-141.64;96.66
47753;BME280;2038;51.728;6.674;2023-11-21T06:25:09;76783.16;;;-141.64;96.36
47753;BME280;2038;51.728;6.674;2023-11-21T06:27:39;76785.13;;;-141.64;96.48
47753;BME280;2038;51.728;6.674;2023-11-21T06:30:07;76789.03;;;-141.64;96.48
47753;BME280;2038;51.728;6.674;2023-11-21T06:32:39;76787.06;;;-141.64;96.38
47753;BME280;2038;51.728;6.674;2023-11-21T06:35:06;76794.88;;;-141.64;96.72
47753;BME280;2038;51.728;6.674;2023-11-21T06:37:34;76792.94;;;-141.64;96.77
47753;BME280;2038;51.728;6.674;2023-11-21T06:40:01;76790.97;;;-141.64;96.88
47753;BME280;2038;51.728;6.674;2023-11-21T06:42:29;76790.97;;;-141.64;96.67
47753;BME280;2038;51.728;6.674;2023-11-21T06:44:56;76790.97;;;-141.64;96.46
47753;BME280;2038;51.728;6.674;2023-11-21T06:47:24;76802.69;;;-141.64;96.93
47753;BME280;2038;51.728;6.674;2023-11-21T06:49:55;76802.69;;;-141.64;96.61
47753;BME280;2038;51.728;6.674;2023-11-21T06:52:22;76800.75;;;-141.64;96.86
47753;BME280;2038;51.728;6.674;2023-11-21T06:54:48;76814.41;;;-141.64;96.64
47753;BME280;2038;51.728;6.674;2023-11-21T06:57:18;76830.03;;;-141.64;97.25
47753;BME280;2038;51.728;6.674;2023-11-21T06:59:44;76820.25;;;-141.64;97.27
47753;BME280;2038;51.728;6.674;2023-11-21T07:02:10;76814.41;;;-141.64;97.62
47753;BME280;2038;51.728;6.674;2023-11-21T07:04:37;76806.59;;;-141.64;97.01
47753;BME280;2038;51.728;6.674;2023-11-21T07:07:04;76812.47;;;-141.64;97.30
47753;BME280;2038;51.728;6.674;2023-11-21T07:09:30;76814.41;;;-141.64;97.34
47753;BME280;2038;51.728;6.674;2023-11-21T07:11:57;76814.41;;;-141.64;97.27
47753;BME280;2038;51.728;6.674;2023-11-21T07:14:23;76818.31;;;-141.64;96.87
47753;BME280;2038;51.728;6.674;2023-11-21T07:16:49;76810.50;;;-141.64;97.05
47753;BME280;2038;51.728;6.674;2023-11-21T07:19:17;76828.06;;;-141.64;96.80
47753;BME280;2038;51.728;6.674;2023-11-21T07:21:43;76818.31;;;-141.64;97.21
47753;BME280;2038;51.728;6.674;2023-11-21T07:24:09;76828.06;;;-141.64;97.59
47753;BME280;2038;51.728;6.674;2023-11-21T07:26:37;76824.16;;;-141.64;96.82
47753;BME280;2038;51.728;6.674;2023-11-21T07:29:03;76833.94;;;-141.64;97.67
47753;BME280;2038;51.728;6.674;2023-11-21T07:31:30;76826.13;;;-141.64;97.05
47753;BME280;2038;51.728;6.674;2023-11-21T07:33:57;76828.06;;;-141.64;97.13
47753;BME280;2038;51.728;6.674;2023-11-21T07:36:23;76824.16;;;-141.64;97.77
47753;BME280;2038;51.728;6.674;2023-11-21T07:38:50;76820.25;;;-141.64;97.30
47753;BME280;2038;51.728;6.674;2023-11-21T07:41:17;76826.13;;;-141.64;97.45
47753;BME280;2038;51.728;6.674;2023-11-21T07:43:45;76822.22;;;-141.64;97.42
47753;BME280;2038;51.728;6.674;2023-11-21T07:46:11;76820.25;;;-141.64;96.93
47753;BME280;2038;51.728;6.674;2023-11-21T07:48:39;76830.03;;;-141.64;96.61
47753;BME280;2038;51.728;6.674;2023-11-21T07:51:07;76835.88;;;-141.64;96.75
47753;BME280;2038;51.728;6.674;2023-11-21T07:53:34;76861.28;;;-141.64;97.27
47753;BME280;2038;51.728;6.674;2023-11-21T07:56:05;76853.47;;;-141.64;97.13
47753;BME280;2038;51.728;6.674;2023-11-21T07:58:34;76855.41;;;-141.64;96.77
47753;BME280;2038;51.728;6.674;2023-11-21T08:01:01;76863.22;;;-141.64;97.37
47753;BME280;2038;51.728;6.674;2023-11-21T08:03:29;76863.22;;;-141.64;96.96
47753;BME280;2038;51.728;6.674;2023-11-21T08:05:59;76861.28;;;-141.64;96.96
47753;BME280;2038;51.728;6.674;2023-11-21T08:08:26;76861.28;;;-141.64;97.38
47753;BME280;2038;51.728;6.674;2023-11-21T08:10:53;76855.41;;;-141.64;97.29
47753;BME280;2038;51.728;6.674;2023-11-21T08:13:26;76859.31;;;-141.64;97.36
47753;BME280;2038;51.728;6.674;2023-11-21T08:15:57;76861.28;;;-141.64;97.11
47753;BME280;2038;51.728;6.674;2023-11-21T08:18:29;76851.50;;;-141.64;96.84
47753;BME280;2038;51.728;6.674;2023-11-21T08:20:56;76853.47;;;-141.64;96.73
47753;BME280;2038;51.728;6.674;2023-11-21T08:23:23;76857.38;;;-141.64;97.29
47753;BME280;2038;51.728;6.674;2023-11-21T08:25:53;76853.47;;;-141.64;97.07
47753;BME280;2038;51.728;6.674;2023-11-21T08:28:20;76841.75;;;-141.64;97.17
47753;BME280;2038;51.728;6.674;2023-11-21T08:30:48;76849.56;;;-141.64;97.52
47753;BME280;2038;51.728;6.674;2023-11-21T08:33:14;76849.56;;;-141.64;97.49
47753;BME280;2038;51.728;6.674;2023-11-21T08:35:40;76845.66;;;-141.64;97.27
47753;BME280;2038;51.728;6.674;2023-11-21T08:38:06;76851.50;;;-141.64;97.51
47753;BME280;2038;51.728;6.674;2023-11-21T08:40:34;76843.69;;;-141.64;97.31
47753;BME280;2038;51.728;6.674;2023-11-21T08:43:00;76837.84;;;-141.64;97.26
47753;BME280;2038;51.728;6.674;2023-11-21T08:45:27;76833.94;;;-141.64;97.36
47753;BME280;2038;51.728;6.674;2023-11-21T08:47:53;76843.69;;;-141.64;97.48
47753;BME280;2038;51.728;6.674;2023-11-21T08:50:19;76833.94;;;-141.64;97.50
47753;BME280;2038;51.728;6.674;2023-11-21T08:52:46;76839.78;;;-141.64;97.14
47753;BME280;2038;51.728;6.674;2023-11-21T08:55:12;76839.78;;;-141.64;97.39
47753;BME280;2038;51.728;6.674;2023-11-21T08:57:40;76833.94;;;-141.64;97.52
47753;BME280;2038;51.728;6.674;2023-11-21T09:00:08;76820.25;;;-141.64;97.39
47753;BME280;2038;51.728;6.674;2023-11-21T09:02:39;76826.13;;;-141.64;97.30
47753;BME280;2038;51.728;6.674;2023-11-21T09:05:11;76820.25;;;-141.64;97.10
47753;BME280;2038;51.728;6.674;2023-11-21T09:07:40;76814.41;;;-141.64;96.93
47753;BME280;2038;51.728;6.674;2023-11-21T09:10:07;76822.22;;;-141.64;97.27
47753;BME280;2038;51.728;6.674;2023-11-21T09:12:35;76822.22;;;-141.64;97.20
47753;BME280;2038;51.728;6.674;2023-11-21T09:15:06;76818.31;;;-141.64;97.01
47753;BME280;2038;51.728;6.674;2023-11-21T09:17:35;76816.34;;;-141.64;96.74
47753;BME280;2038;51.728;6.674;2023-11-21T09:20:02;76816.34;;;-141.64;97.01
47753;BME280;2038;51.728;6.674;2023-11-21T09:22:33;76828.06;;;-141.64;97.02
47753;BME280;2038;51.728;6.674;2023-11-21T09:25:00;76822.22;;;-141.64;96.69
47753;BME280;2038;51.728;6.674;2023-11-21T09:27:26;76820.25;;;-141.64;96.60
47753;BME280;2038;51.728;6.674;2023-11-21T09:29:52;76806.59;;;-141.64;96.15
47753;BME280;2038;51.728;6.674;2023-11-21T09:32:19;76800.75;;;-141.64;95.87
47753;BME280;2038;51.728;6.674;2023-11-21T09:34:48;76800.75;;;-141.64;96.06
47753;BME280;2038;51.728;6.674;2023-11-21T09:37:14;76789.03;;;-141.64;96.13
47753;BME280;2038;51.728;6.674;2023-11-21T09:39:40;76775.34;;;-141.64;96.04
47753;BME280;2038;51.728;6.674;2023-11-21T09:42:17;76779.25;;;-141.64;96.45
47753;BME280;2038;51.728;6.674;2023-11-21T09:44:57;76779.25;;;-141.64;95.43
47753;BME280;2038;51.728;6.674;2023-11-21T09:47:30;76773.41;;;-141.64;95.34
47753;BME280;2038;51.728;6.674;2023-11-21T09:50:01;76769.50;;;-141.64;95.29
47753;BME280;2038;51.728;6.674;2023-11-21T09:52:28;76783.16;;;-141.64;95.32
47753;BME280;2038;51.728;6.674;2023-11-21T09:54:58;76779.25;;;-141.64;94.79
47753;BME280;2038;51.728;6.674;2023-11-21T09:57:27;76783.16;;;-141.64;94.93
47753;BME280;2038;51.728;6.674;2023-11-21T09:59:57;76773.41;;;-141.64;94.95
47753;BME280;2038;51.728;6.674;2023-11-21T10:02:29;76765.59;;;-141.64;95.15
47753;BME280;2038;51.728;6.674;2023-11-21T10:04:56;76759.72;;;-141.64;94.93
47753;BME280;2038;51.728;6.674;2023-11-21T10:07:25;76755.84;;;-141.64;95.02
47753;BME280;2038;51.728;6.674;2023-11-21T10:09:53;76781.22;;;-141.64;94.03
47753;BME280;2038;51.728;6.674;2023-11-21T10:12:22;76765.59;;;-141.64;94.76
47753;BME280;2038;51.728;6.674;2023-11-21T10:14:49;76763.63;;;-141.64;94.74
47753;BME280;2038;51.728;6.674;2023-11-21T10:17:18;76749.97;;;-141.64;94.90
47753;BME280;2038;51.728;6.674;2023-11-21T10:19:49;76751.94;;;-141.64;95.06
47753;BME280;2038;51.728;6.674;2023-11-21T10:22:16;76742.16;;;-141.64;94.66
47753;BME280;2038;51.728;6.674;2023-11-21T10:24:43;76740.22;;;-141.64;94.53
47753;BME280;2038;51.728;6.674;2023-11-21T10:27:09;76726.53;;;-141.64;94.74
47753;BME280;2038;51.728;6.674;2023-11-21T10:29:35;76718.72;;;-141.64;94.41
47753;BME280;2038;51.728;6.674;2023-11-21T10:32:05;76720.69;;;-141.64;94.46
47753;BME280;2038;51.728;6.674;2023-11-21T10:34:31;76714.81;;;-141.64;94.31
47753;BME280;2038;51.728;6.674;2023-11-21T10:36:59;76712.88;;;-141.64;94.25
47753;BME280;2038;51.728;6.674;2023-11-21T10:39:38;76703.13;;;-141.64;94.25
47753;BME280;2038;51.728;6.674;2023-11-21T10:42:07;76703.13;;;-141.64;93.74
47753;BME280;2038;51.728;6.674;2023-11-21T10:44:34;76712.88;;;-141.64;94.05
47753;BME280;2038;51.728;6.674;2023-11-21T10:47:01;76703.13;;;-141.64;94.19
47753;BME280;2038;51.728;6.674;2023-11-21T10:49:28;76693.34;;;-141.64;93.89
47753;BME280;2038;51.728;6.674;2023-11-21T10:51:54;76685.53;;;-141.64;93.57
47753;BME280;2038;51.728;6.674;2023-11-21T10:54:23;76699.19;;;-141.64;93.71
47753;BME280;2038;51.728;6.674;2023-11-21T10:56:56;76689.44;;;-141.64;93.60
47753;BME280;2038;51.728;6.674;2023-11-21T10:59:28;76687.50;;;-141.64;93.72
47753;BME280;2038;51.728;6.674;2023-11-21T11:01:57;76691.41;;;-141.64;93.56
47753;BME280;2038;51.728;6.674;2023-11-21T11:04:27;76687.50;;;-141.64;93.62
47753;BME280;2038;51.728;6.674;2023-11-21T11:07:02;76683.59;;;-141.64;93.89
47753;BME280;2038;51.728;6.674;2023-11-21T11:09:32;76673.81;;;-141.64;93.72
47753;BME280;2038;51.728;6.674;2023-11-21T11:12:02;76667.97;;;-141.64;93.84
47753;BME280;2038;51.728;6.674;2023-11-21T11:14:30;76669.91;;;-141.64;93.83
47753;BME280;2038;51.728;6.674;2023-11-21T11:16:58;76664.06;;;-141.64;94.37
47753;BME280;2038;51.728;6.674;2023-11-21T11:19:26;76658.19;;;-141.64;93.68
47753;BME280;2038;51.728;6.674;2023-11-21T11:22:17;76666.00;;;-141.64;93.51
47753;BME280;2038;51.728;6.674;2023-11-21T11:25:21;76675.78;;;-141.64;93.00
47753;BME280;2038;51.728;6.674;2023-11-21T11:28:03;76697.25;;;-141.64;92.50
47753;BME280;2038;51.728;6.674;2023-11-21T11:30:47;76699.19;;;-141.64;92.65
47753;BME280;2038;51.728;6.674;2023-11-21T11:36:22;76703.13;;;-141.64;93.04
47753;BME280;2038;51.728;6.674;2023-11-21T11:38:53;76695.31;;;-141.64;93.01
47753;BME280;2038;51.728;6.674;2023-11-21T11:41:32;76693.34;;;-141.64;93.33
47753;BME280;2038;51.728;6.674;2023-11-21T11:44:03;76697.25;;;-141.64;93.17
47753;BME280;2038;51.728;6.674;2023-11-21T11:46:42;76705.06;;;-141.64;93.24
47753;BME280;2038;51.728;6.674;2023-11-21T11:49:28;76720.69;;;-141.64;93.10
47753;BME280;2038;51.728;6.674;2023-11-21T11:55:31;76732.41;;;-141.64;93.35
47753;BME280;2038;51.728;6.674;2023-11-21T11:57:58;76740.22;;;-141.64;93.54
47753;BME280;2038;51.728;6.674;2023-11-21T12:02:58;76759.72;;;-141.64;93.75
47753;BME280;2038;51.728;6.674;2023-11-21T12:05:29;76757.78;;;-141.64;93.45
47753;BME280;2038;51.728;6.674;2023-11-21T12:08:00;76761.69;;;-141.64;93.17
47753;BME280;2038;51.728;6.674;2023-11-21T12:10:31;76769.50;;;-141.64;93.29
47753;BME280;2038;51.728;6.674;2023-11-21T12:13:05;76779.25;;;-141.64;92.93
47753;BME280;2038;51.728;6.674;2023-11-21T12:15:36;76789.03;;;-141.64;93.15
47753;BME280;2038;51.728;6.674;2023-11-21T12:18:03;76785.13;;;-141.64;93.43
47753;BME280;2038;51.728;6.674;2023-11-21T12:20:30;76794.88;;;-141.64;93.48
47753;BME280;2038;51.728;6.674;2023-11-21T12:23:05;76796.84;;;-141.64;93.88
47753;BME280;2038;51.728;6.674;2023-11-21T12:25:32;76808.56;;;-141.64;94.04
47753;BME280;2038;51.728;6.674;2023-11-21T12:27:59;76810.50;;;-141.64;93.80
47753;BME280;2038;51.728;6.674;2023-11-21T12:30:28;76802.69;;;-141.64;93.73
47753;BME280;2038;51.728;6.674;2023-11-21T12:32:58;76804.66;;;-141.64;93.64
47753;BME280;2038;51.728;6.674;2023-11-21T12:35:27;76798.78;;;-141.64;93.57
47753;BME280;2038;51.728;6.674;2023-11-21T12:37:56;76802.69;;;-141.64;93.81
47753;BME280;2038;51.728;6.674;2023-11-21T12:40:25;76794.88;;;-141.64;93.65
47753;BME280;2038;51.728;6.674;2023-11-21T12:42:56;76796.84;;;-141.64;93.36
47753;BME280;2038;51.728;6.674;2023-11-21T12:45:24;76794.88;;;-141.64;93.16
47753;BME280;2038;51.728;6.674;2023-11-21T12:48:01;76808.56;;;-141.64;93.68
47753;BME280;2038;51.728;6.674;2023-11-21T12:50:34;76814.41;;;-141.64;93.96
47753;BME280;2038;51.728;6.674;2023-11-21T12:53:07;76808.56;;;-141.64;93.91
47753;BME280;2038;51.728;6.674;2023-11-21T12:55:36;76818.31;;;-141.64;93.80
47753;BME280;2038;51.728;6.674;2023-11-21T12:58:04;76820.25;;;-141.64;93.28
47753;BME280;2038;51.728;6.674;2023-11-21T13:00:40;76828.06;;;-141.64;93.68
47753;BME280;2038;51.728;6.674;2023-11-21T13:03:12;76835.88;;;-141.64;93.47
47753;BME280;2038;51.728;6.674;2023-11-21T13:05:43;76839.78;;;-141.64;93.55